createdAt,value
2018-04-17T00:01:22.845Z,95112.94
2018-04-17T00:03:49.377Z,95119.52
2018-04-17T00:06:16.290Z,95118.27
2018-04-17T00:08:42.714Z,95103.55
2018-04-17T00:11:09.088Z,95114.87
2018-04-17T00:13:35.518Z,95110.08
2018-04-17T00:16:02.049Z,95109.45
2018-04-17T00:18:28.421Z,95113.72
2018-04-17T00:20:54.980Z,95106.64
2018-04-17T00:23:21.309Z,95119.14
2018-04-17T00:25:47.636Z,95113.95
2018-04-17T00:28:14.224Z,95110.64
2018-04-17T00:30:40.708Z,95108.33
2018-04-17T00:33:07.088Z,95102.41
2018-04-17T00:35:33.448Z,95107.33
2018-04-17T00:37:59.860Z,95101.95
2018-04-17T00:40:26.283Z,95111.05
2018-04-17T00:42:52.674Z,95104.16
2018-04-17T00:45:19.159Z,95097.63
2018-04-17T00:47:46.281Z,95104.98
2018-04-17T00:50:12.625Z,95110.27
2018-04-17T00:52:38.989Z,95101.08
2018-04-17T00:55:05.484Z,95108.37
2018-04-17T00:57:31.938Z,95111.83
2018-04-17T00:59:58.312Z,95105.20
2018-04-17T01:02:24.676Z,95111.78
2018-04-17T01:04:51.015Z,95114.45
2018-04-17T01:07:17.556Z,95105.66
2018-04-17T01:09:43.910Z,95118.78
2018-04-17T01:12:10.288Z,95117.73
2018-04-17T01:14:36.648Z,95098.88
2018-04-17T01:17:03.206Z,95098.45
2018-04-17T01:19:29.667Z,95111.42
2018-04-17T01:21:56.496Z,95116.25
2018-04-17T01:24:22.993Z,95105.20
2018-04-17T01:26:49.394Z,95097.52
2018-04-17T01:29:16.459Z,95101.86
2018-04-17T01:31:42.798Z,95078.55
2018-04-17T01:34:09.138Z,95111.52
2018-04-17T01:36:35.482Z,95116.95
2018-04-17T01:39:01.948Z,95110.78
2018-04-17T01:41:28.271Z,95104.28
2018-04-17T01:43:54.619Z,95095.59
2018-04-17T01:46:20.981Z,95074.83
2018-04-17T01:51:19.768Z,95072.95
2018-04-17T01:53:46.502Z,95084.71
2018-04-17T01:56:12.879Z,95084.52
2018-04-17T01:58:39.560Z,95100.89
2018-04-17T02:01:05.945Z,95093.67
2018-04-17T02:03:32.337Z,95086.96
2018-04-17T02:05:58.660Z,95086.36
2018-04-17T02:08:25.037Z,95063.69
2018-04-17T02:10:51.444Z,95063.03
2018-04-17T02:13:18.033Z,95069.19
2018-04-17T02:15:44.772Z,95052.94
2018-04-17T02:18:11.727Z,95064.78
2018-04-17T02:20:38.632Z,95062.48
2018-04-17T02:23:05.096Z,95057.43
2018-04-17T02:25:31.432Z,95052.34
2018-04-17T02:27:57.865Z,95048.06
2018-04-17T02:30:24.374Z,95066.36
2018-04-17T02:32:50.705Z,95063.78
2018-04-17T02:35:17.332Z,95048.84
2018-04-17T02:37:43.792Z,95037.22
2018-04-17T02:40:10.473Z,95062.12
2018-04-17T02:42:37.366Z,95050.12
2018-04-17T02:45:03.807Z,95055.69
2018-04-17T02:47:30.142Z,95058.31
2018-04-17T02:49:56.749Z,95077.34
2018-04-17T02:52:23.201Z,95086.88
2018-04-17T02:54:49.578Z,95088.12
2018-04-17T02:57:16.053Z,95063.53
2018-04-17T02:59:42.412Z,95061.19
2018-04-17T03:02:08.768Z,95058.64
2018-04-17T03:04:35.305Z,95072.08
2018-04-17T03:07:01.643Z,95062.95
2018-04-17T03:09:27.984Z,95062.08
2018-04-17T03:11:54.888Z,95056.23
2018-04-17T03:14:21.290Z,95041.58
2018-04-17T03:16:47.777Z,95050.70
2018-04-17T03:19:14.357Z,95057.28
2018-04-17T03:21:40.776Z,95053.08
2018-04-17T03:24:07.131Z,95063.61
2018-04-17T03:26:33.478Z,95065.00
2018-04-17T03:28:59.833Z,95059.64
2018-04-17T03:31:26.236Z,95050.91
2018-04-17T03:33:52.612Z,95050.27
2018-04-17T03:36:19.096Z,95060.27
2018-04-17T03:38:45.490Z,95050.29
2018-04-17T03:41:12.209Z,95044.65
2018-04-17T03:43:38.598Z,95042.62
2018-04-17T03:46:04.927Z,95040.78
2018-04-17T03:48:35.064Z,95049.33
2018-04-17T03:51:01.422Z,95058.17
2018-04-17T03:53:27.790Z,95064.08
2018-04-17T03:55:54.148Z,95067.47
2018-04-17T03:58:20.991Z,95078.08
2018-04-17T04:00:47.401Z,95090.08
2018-04-17T04:03:13.849Z,95106.59
2018-04-17T04:05:40.443Z,95100.71
2018-04-17T04:08:06.845Z,95102.64
2018-04-17T04:10:33.223Z,95099.44
2018-04-17T04:12:59.825Z,95106.15
2018-04-17T04:15:26.272Z,95107.75
2018-04-17T04:20:25.124Z,95104.73
2018-04-17T04:22:51.468Z,95106.01
2018-04-17T04:25:17.885Z,95102.16
2018-04-17T04:27:44.281Z,95102.19
2018-04-17T04:30:10.692Z,95109.75
2018-04-17T04:32:37.181Z,95124.30
2018-04-17T04:35:03.815Z,95121.11
2018-04-17T04:37:30.383Z,95129.06
2018-04-17T04:39:56.993Z,95134.85
2018-04-17T04:42:23.354Z,95127.66
2018-04-17T04:44:49.817Z,95130.48
2018-04-17T04:47:16.224Z,95141.37
2018-04-17T04:49:42.610Z,95147.02
2018-04-17T04:52:09.015Z,95150.44
2018-04-17T04:54:35.311Z,95161.94
2018-04-17T04:57:02.356Z,95165.73
2018-04-17T04:59:28.885Z,95159.38
2018-04-17T05:01:55.275Z,95158.18
2018-04-17T05:04:21.688Z,95164.56
2018-04-17T05:06:48.064Z,95168.89
2018-04-17T05:09:14.470Z,95165.22
2018-04-17T05:11:40.898Z,95177.83
2018-04-17T05:14:07.320Z,95178.15
2018-04-17T05:16:33.850Z,95176.45
2018-04-17T05:19:00.572Z,95174.41
2018-04-17T05:21:27.125Z,95176.22
2018-04-17T05:23:53.598Z,95154.78
2018-04-17T05:26:20.115Z,95163.84
2018-04-17T05:28:46.539Z,95175.47
2018-04-17T05:31:12.916Z,95169.44
2018-04-17T05:33:39.568Z,95168.64
2018-04-17T05:36:06.073Z,95163.33
2018-04-17T05:38:32.809Z,95160.16
2018-04-17T05:40:59.349Z,95194.38
2018-04-17T05:43:26.289Z,95188.47
2018-04-17T05:45:53.349Z,95189.53
2018-04-17T05:48:19.714Z,95175.59
2018-04-17T05:50:46.317Z,95173.99
2018-04-17T05:53:12.992Z,95179.14
2018-04-17T05:55:39.541Z,95178.68
2018-04-17T05:58:06.010Z,95180.80
2018-04-17T06:00:32.737Z,95182.13
2018-04-17T06:02:59.216Z,95180.04
2018-04-17T06:05:26.079Z,95188.34
2018-04-17T06:07:52.495Z,95197.14
2018-04-17T06:10:19.994Z,95187.01
2018-04-17T06:12:47.481Z,95198.07
2018-04-17T06:15:14.306Z,95188.97
2018-04-17T06:17:41.386Z,95197.41
2018-04-17T06:20:08.614Z,95194.30
2018-04-17T06:22:35.100Z,95195.92
2018-04-17T06:25:01.825Z,95185.70
2018-04-17T06:27:28.451Z,95194.42
2018-04-17T06:29:55.339Z,95195.39
2018-04-17T06:32:21.988Z,95196.85
2018-04-17T06:34:49.193Z,95201.52
2018-04-17T06:37:17.897Z,95203.52
2018-04-17T06:39:45.204Z,95203.80
2018-04-17T06:42:11.878Z,95186.76
2018-04-17T06:44:38.589Z,95212.02
2018-04-17T06:47:06.825Z,95192.39
2018-04-17T06:49:33.541Z,95204.70
2018-04-17T06:54:38.023Z,95198.63
2018-04-17T06:57:04.939Z,95200.78
2018-04-17T06:59:31.452Z,95203.19
2018-04-17T07:01:58.759Z,95205.06
2018-04-17T07:04:26.399Z,95203.94
2018-04-17T07:10:43.676Z,95208.02
2018-04-17T07:13:11.042Z,95197.36
2018-04-17T07:15:38.523Z,95212.18
2018-04-17T07:20:37.709Z,95216.33
2018-04-17T07:23:05.614Z,95219.03
2018-04-17T07:25:33.042Z,95218.78
2018-04-17T07:27:59.684Z,95223.89
2018-04-17T07:30:26.731Z,95222.48
2018-04-17T07:33:02.917Z,95222.03
2018-04-17T07:35:29.970Z,95219.64
2018-04-17T07:37:56.319Z,95213.38
2018-04-17T07:42:54.370Z,95206.98
2018-04-17T07:45:23.471Z,95211.86
2018-04-17T07:47:50.435Z,95213.89
2018-04-17T07:50:18.835Z,95209.04
2018-04-17T07:52:46.012Z,95219.28
2018-04-17T07:55:12.721Z,95217.38
2018-04-17T07:57:39.351Z,95223.16
2018-04-17T08:00:13.934Z,95220.29
2018-04-17T08:02:40.881Z,95225.02
2018-04-17T08:05:07.631Z,95204.53
2018-04-17T08:07:35.737Z,95204.28
2018-04-17T08:10:02.482Z,95217.43
2018-04-17T08:12:29.120Z,95230.14
2018-04-17T08:14:55.575Z,95221.70
2018-04-17T08:17:22.119Z,95218.83
2018-04-17T08:19:56.146Z,95214.96
2018-04-17T08:22:22.560Z,95205.21
2018-04-17T08:24:49.093Z,95211.78
2018-04-17T08:27:15.542Z,95204.63
2018-04-17T08:29:42.040Z,95201.78
2018-04-17T08:32:08.689Z,95195.16
2018-04-17T08:34:35.515Z,95198.60
2018-04-17T08:37:02.583Z,95195.80
2018-04-17T08:39:29.541Z,95204.29
2018-04-17T08:41:56.478Z,95203.39
2018-04-17T08:44:23.378Z,95202.15
2018-04-17T08:46:50.267Z,95201.30
2018-04-17T08:49:16.999Z,95194.33
2018-04-17T08:51:43.852Z,95204.67
2018-04-17T08:54:10.994Z,95207.30
2018-04-17T08:56:38.231Z,95209.08
2018-04-17T08:59:05.176Z,95199.44
2018-04-17T09:01:31.817Z,95206.42
2018-04-17T09:03:58.578Z,95210.77
2018-04-17T09:06:25.317Z,95201.90
2018-04-17T09:08:52.033Z,95199.13
2018-04-17T09:11:18.765Z,95191.68
2018-04-17T09:13:45.232Z,95198.09
2018-04-17T09:16:11.602Z,95195.08
2018-04-17T09:18:37.984Z,95194.59
2018-04-17T09:21:04.343Z,95202.20
2018-04-17T09:23:30.732Z,95193.22
2018-04-17T09:25:58.160Z,95191.77
2018-04-17T09:28:24.519Z,95198.50
2018-04-17T09:30:51.054Z,95190.08
2018-04-17T09:33:17.774Z,95191.13
2018-04-17T09:35:45.412Z,95201.33
2018-04-17T09:38:11.801Z,95199.16
2018-04-17T09:40:38.655Z,95189.27
2018-04-17T09:43:06.020Z,95196.63
2018-04-17T09:45:32.508Z,95188.66
2018-04-17T09:47:58.871Z,95196.61
2018-04-17T09:50:25.250Z,95190.06
2018-04-17T09:52:51.637Z,95193.23
2018-04-17T09:55:18.049Z,95186.09
2018-04-17T09:57:44.518Z,95179.16
2018-04-17T10:00:11.034Z,95159.88
2018-04-17T10:02:37.494Z,95172.34
2018-04-17T10:05:03.910Z,95173.84
2018-04-17T10:07:30.381Z,95186.92
2018-04-17T10:09:56.787Z,95175.45
2018-04-17T10:12:23.127Z,95174.63
2018-04-17T10:14:49.521Z,95157.20
2018-04-17T10:17:16.015Z,95173.22
2018-04-17T10:19:42.412Z,95174.52
2018-04-17T10:22:08.782Z,95162.77
2018-04-17T10:24:35.199Z,95159.63
2018-04-17T10:29:23.065Z,95172.14
2018-04-17T10:31:49.430Z,95161.59
2018-04-17T10:34:15.752Z,95172.71
2018-04-17T10:36:42.138Z,95175.04
2018-04-17T10:39:08.546Z,95168.78
2018-04-17T10:41:34.977Z,95161.08
2018-04-17T10:44:01.357Z,95152.14
2018-04-17T10:46:27.791Z,95168.02
2018-04-17T10:48:54.326Z,95159.21
2018-04-17T10:51:20.781Z,95144.22
2018-04-17T10:53:47.339Z,95157.77
2018-04-17T10:56:13.854Z,95169.86
2018-04-17T10:58:40.368Z,95143.23
2018-04-17T11:01:06.868Z,95165.52
2018-04-17T11:03:33.327Z,95161.81
2018-04-17T11:05:59.874Z,95156.23
2018-04-17T11:08:26.300Z,95153.53
2018-04-17T11:10:52.861Z,95139.05
2018-04-17T11:13:19.360Z,95150.92
2018-04-17T11:15:45.708Z,95155.55
2018-04-17T11:18:12.234Z,95151.47
2018-04-17T11:20:46.136Z,95152.54
2018-04-17T11:28:15.492Z,95131.99
2018-04-17T11:48:57.355Z,95120.23
2018-04-17T11:51:23.873Z,95125.05
2018-04-17T11:53:50.222Z,95121.37
2018-04-17T11:56:16.693Z,95131.33
2018-04-17T11:58:43.100Z,95134.20
2018-04-17T12:01:09.700Z,95121.88
2018-04-17T12:03:36.351Z,95128.22
2018-04-17T12:06:02.752Z,95132.58
2018-04-17T12:08:29.442Z,95116.63
2018-04-17T12:10:56.306Z,95103.05
2018-04-17T12:13:22.648Z,95124.05
2018-04-17T12:15:49.048Z,95108.48
2018-04-17T12:18:15.431Z,95116.41
2018-04-17T12:20:41.869Z,95088.06
2018-04-17T12:23:08.233Z,95115.74
2018-04-17T12:25:34.642Z,95111.48
2018-04-17T12:28:01.018Z,95100.61
2018-04-17T12:30:27.493Z,95112.84
2018-04-17T12:32:53.900Z,95100.75
2018-04-17T12:35:20.243Z,95090.11
2018-04-17T12:37:46.798Z,95092.80
2018-04-17T12:40:13.381Z,95100.43
2018-04-17T12:42:39.733Z,95086.88
2018-04-17T12:45:06.184Z,95085.55
2018-04-17T12:47:32.513Z,95092.25
2018-04-17T12:49:58.912Z,95094.58
2018-04-17T12:52:25.233Z,95090.97
2018-04-17T12:54:51.769Z,95081.22
2018-04-17T12:57:18.174Z,95090.32
2018-04-17T12:59:44.663Z,95087.67
2018-04-17T13:02:10.998Z,95095.76
2018-04-17T13:04:37.803Z,95087.27
2018-04-17T13:07:04.256Z,95088.30
2018-04-17T13:09:30.590Z,95080.83
2018-04-17T13:11:57.151Z,95098.83
2018-04-17T13:14:23.488Z,95096.67
2018-04-17T13:16:49.957Z,95083.08
2018-04-17T13:19:23.726Z,95088.69
2018-04-17T13:21:50.261Z,95084.06
2018-04-17T13:24:16.710Z,95068.68
2018-04-17T13:26:43.097Z,95080.64
2018-04-17T13:29:09.428Z,95075.25
2018-04-17T13:31:35.787Z,95060.41
2018-04-17T13:34:02.146Z,95075.30
2018-04-17T13:36:28.567Z,95077.86
2018-04-17T13:38:54.941Z,95071.10
2018-04-17T13:41:21.285Z,95061.72
2018-04-17T13:43:47.737Z,95083.38
2018-04-17T13:46:14.538Z,95063.75
2018-04-17T13:48:40.933Z,95081.41
2018-04-17T13:51:07.317Z,95049.92
2018-04-17T13:53:33.656Z,95090.14
2018-04-17T13:56:00.064Z,95078.92
2018-04-17T13:58:26.468Z,95080.00
2018-04-17T14:00:52.810Z,95088.77
2018-04-17T14:03:19.316Z,95097.43
2018-04-17T14:05:45.718Z,95098.67
2018-04-17T14:08:12.116Z,95084.95
2018-04-17T14:10:38.494Z,95109.80
2018-04-17T14:13:04.815Z,95120.81
2018-04-17T14:15:31.366Z,95113.10
2018-04-17T14:17:57.900Z,95103.56
2018-04-17T14:20:31.691Z,95130.27
2018-04-17T14:22:58.079Z,95121.79
2018-04-17T14:25:24.641Z,95120.81
2018-04-17T14:27:51.217Z,95131.71
2018-04-17T14:46:01.634Z,95162.64
2018-04-17T14:48:28.010Z,95154.92
2018-04-17T14:50:54.432Z,95163.81
2018-04-17T14:53:20.801Z,95158.14
2018-04-17T14:55:47.265Z,95170.07
2018-04-17T14:58:13.762Z,95166.66
2018-04-17T15:00:40.898Z,95173.31
2018-04-17T15:03:07.290Z,95169.34
2018-04-17T15:05:33.701Z,95157.75
2018-04-17T15:08:00.033Z,95164.94
2018-04-17T15:10:26.444Z,95155.43
2018-04-17T15:12:52.802Z,95177.89
2018-04-17T15:15:19.218Z,95183.27
2018-04-17T15:17:45.674Z,95176.63
2018-04-17T15:20:19.385Z,95180.45
2018-04-17T15:22:45.774Z,95173.47
2018-04-17T15:25:12.130Z,95186.33
2018-04-17T15:27:38.522Z,95194.44
2018-04-17T15:45:48.447Z,95213.09
2018-04-17T15:48:14.814Z,95198.81
2018-04-17T16:06:25.498Z,95245.67
2018-04-17T16:08:52.029Z,95251.24
2018-04-17T16:11:18.403Z,95249.70
2018-04-17T16:13:44.798Z,95256.11
2018-04-17T16:16:11.125Z,95253.30
2018-04-17T16:18:37.487Z,95260.20
2018-04-17T16:21:03.810Z,95251.38
2018-04-17T16:23:30.148Z,95255.33
2018-04-17T16:25:56.564Z,95249.12
2018-04-17T16:28:22.936Z,95258.16
2018-04-17T16:30:49.306Z,95265.78
2018-04-17T16:33:15.745Z,95265.01
2018-04-17T16:45:47.889Z,95263.72
2018-04-17T16:48:14.431Z,95274.20
2018-04-17T16:50:48.204Z,95269.60
2018-04-17T16:53:14.575Z,95276.84
2018-04-17T16:55:41.208Z,95279.49
2018-04-17T17:00:40.148Z,95280.44
2018-04-17T17:03:06.512Z,95281.46
2018-04-17T17:05:32.873Z,95274.20
2018-04-17T17:07:59.236Z,95280.48
2018-04-17T17:10:25.572Z,95282.88
2018-04-17T17:12:51.892Z,95293.68
2018-04-17T17:15:18.397Z,95275.81
2018-04-17T17:17:44.748Z,95296.72
2018-04-17T17:20:11.120Z,95303.53
2018-04-17T17:22:37.577Z,95306.52
2018-04-17T17:25:03.968Z,95310.34
2018-04-17T17:27:30.287Z,95313.70
2018-04-17T17:29:56.610Z,95310.80
2018-04-17T17:32:23.032Z,95309.74
2018-04-17T17:34:50.397Z,95315.02
2018-04-17T17:37:16.729Z,95314.52
2018-04-17T17:39:43.060Z,95307.34
2018-04-17T17:42:09.386Z,95324.24
2018-04-17T17:44:35.732Z,95325.12
2018-04-17T17:47:02.097Z,95329.45
2018-04-17T17:49:35.739Z,95333.22
2018-04-17T17:52:02.068Z,95338.30
2018-04-17T17:54:28.380Z,95347.15
2018-04-17T17:56:54.822Z,95357.88
2018-04-17T17:59:21.172Z,95357.42
2018-04-17T18:01:47.556Z,95352.44
2018-04-17T18:04:13.958Z,95361.11
2018-04-17T18:06:40.281Z,95366.34
2018-04-17T18:09:06.596Z,95361.11
2018-04-17T18:11:33.213Z,95357.73
2018-04-17T18:13:59.668Z,95371.38
2018-04-17T18:16:26.300Z,95355.90
2018-04-17T18:23:55.601Z,95367.94
2018-04-17T18:26:22.056Z,95373.28
2018-04-17T18:28:48.387Z,95376.59
2018-04-17T18:31:14.754Z,95381.10
2018-04-17T18:33:41.077Z,95387.27
2018-04-17T18:36:07.465Z,95398.20
2018-04-17T18:38:33.788Z,95401.33
2018-04-17T18:41:07.310Z,95395.23
2018-04-17T18:43:33.660Z,95393.95
2018-04-17T18:45:59.971Z,95408.14
2018-04-17T18:48:26.412Z,95407.95
2018-04-17T18:50:52.734Z,95416.30
2018-04-17T18:53:19.043Z,95409.33
2018-04-17T18:55:45.403Z,95422.93
2018-04-17T18:58:11.793Z,95419.52
2018-04-17T19:00:45.492Z,95413.30
2018-04-17T19:03:11.837Z,95413.81
2018-04-17T19:05:38.162Z,95424.55
2018-04-17T19:08:04.530Z,95422.05
2018-04-17T19:23:43.529Z,95433.34
2018-04-17T19:26:09.906Z,95423.90
2018-04-17T19:28:36.229Z,95439.47
2018-04-17T19:31:02.639Z,95439.51
2018-04-17T19:33:29.050Z,95443.06
2018-04-17T19:35:55.368Z,95438.54
2018-04-17T19:38:21.744Z,95432.14
2018-04-17T19:40:48.099Z,95436.05
2018-04-17T19:43:14.532Z,95438.91
2018-04-17T19:45:40.857Z,95439.88
2018-04-17T19:48:07.239Z,95442.87
2018-04-17T19:50:40.656Z,95429.36
2018-04-17T19:53:07.104Z,95441.48
2018-04-17T19:55:33.544Z,95446.75
2018-04-17T19:57:59.935Z,95444.34
2018-04-17T20:02:58.781Z,95440.06
2018-04-17T20:05:25.143Z,95448.12
2018-04-17T20:07:51.528Z,95447.70
2018-04-17T20:10:17.843Z,95445.41
2018-04-17T20:12:44.243Z,95441.67
2018-04-17T20:15:10.596Z,95444.16
2018-04-17T20:17:36.921Z,95440.76
2018-04-17T20:20:03.345Z,95439.23
2018-04-17T20:22:29.698Z,95434.50
2018-04-17T20:24:56.062Z,95436.51
2018-04-17T20:27:22.569Z,95441.54
2018-04-17T20:29:48.893Z,95434.77
2018-04-17T20:32:15.253Z,95441.86
2018-04-17T20:34:41.593Z,95440.20
2018-04-17T20:37:07.959Z,95429.13
2018-04-17T20:39:41.488Z,95441.03
2018-04-17T20:42:07.846Z,95441.89
2018-04-17T20:44:34.395Z,95446.31
2018-04-17T20:47:00.753Z,95441.66
2018-04-17T20:49:27.200Z,95441.16
2018-04-17T20:51:53.557Z,95440.17
2018-04-17T20:54:19.880Z,95454.05
2018-04-17T20:56:46.216Z,95447.06
2018-04-17T20:59:12.787Z,95466.66
2018-04-17T21:01:39.144Z,95456.64
2018-04-17T21:04:05.472Z,95468.70
2018-04-17T21:06:31.813Z,95472.34
2018-04-17T21:08:58.172Z,95464.92
2018-04-17T21:11:24.639Z,95457.26
2018-04-17T21:13:51.083Z,95460.55
2018-04-17T21:16:17.403Z,95459.91
2018-04-17T21:18:43.717Z,95468.91
2018-04-17T21:21:10.072Z,95461.98
2018-04-17T21:23:36.413Z,95453.34
2018-04-17T21:31:12.626Z,95458.19
2018-04-17T21:33:39.000Z,95469.61
2018-04-17T21:36:05.413Z,95468.71
2018-04-17T21:38:31.839Z,95462.61
2018-04-17T21:51:40.365Z,95482.15
2018-04-17T21:54:06.716Z,95475.44
2018-04-17T21:56:33.036Z,95486.06
2018-04-17T21:58:59.415Z,95482.17
